Time;durP1;ratioP1;P1;durP2;ratioP2;P2;SDS_P1;SDS_P2;PMS_P1;PMS_P2;Temp;Humidity;BMP_temperature;BMP_pressure;BME280_temperature;BME280_humidity;BME280_pressure;Samples;Min_cycle;Max_cycle;Signal;HPM_P1;HPM_P2
2024/03/24 00:03:52;;;;;;;5.60;4.40;;;;;;;3.36;80.94;98713.96;218164;1256;140651;-70
2024/03/24 00:08:56;;;;;;;6.00;4.20;;;;;;;3.34;80.84;98712.58;218284;1259;142104;-70
2024/03/24 00:13:59;;;;;;;7.10;4.00;;;;;;;3.33;81.13;98702.21;217544;1259;140058;-70
2024/03/24 00:19:03;;;;;;;7.00;3.70;;;;;;;3.33;81.19;98697.14;217765;1257;140606;-69
2024/03/24 00:24:07;;;;;;;6.30;3.60;;;;;;;3.24;80.88;98700.31;217648;1259;141405;-70
2024/03/24 00:29:10;;;;;;;10.80;4.40;;;;;;;3.12;81.01;98694.46;217568;1257;141646;-69
2024/03/24 00:34:13;;;;;;;8.10;4.10;;;;;;;3.03;81.27;98691.09;217687;1259;141033;-69
2024/03/24 00:39:17;;;;;;;5.40;4.70;;;;;;;3.04;82.06;98690.27;217589;1259;142266;-70
2024/03/24 00:44:21;;;;;;;9.00;6.20;;;;;;;3.08;82.30;98683.06;217814;1259;142112;-70
2024/03/24 00:49:25;;;;;;;15.20;4.90;;;;;;;3.12;82.46;98677.77;217798;1257;139936;-70
2024/03/24 00:54:27;;;;;;;6.90;4.70;;;;;;;3.14;82.38;98676.47;217484;1259;141156;-70
2024/03/24 00:59:31;;;;;;;14.00;6.50;;;;;;;3.13;82.26;98670.23;218347;1257;140933;-69
2024/03/24 01:04:35;;;;;;;9.20;5.20;;;;;;;3.08;82.50;98659.02;219217;1256;140933;-70
2024/03/24 01:09:38;;;;;;;10.50;6.50;;;;;;;3.05;82.61;98656.04;217391;1257;139435;-71
2024/03/24 01:14:42;;;;;;;8.40;5.70;;;;;;;3.02;82.62;98642.95;217810;1259;141862;-69
2024/03/24 01:19:45;;;;;;;11.70;5.90;;;;;;;2.99;82.72;98632.14;217759;1257;141885;-70
2024/03/24 01:24:48;;;;;;;10.80;4.70;;;;;;;2.93;82.74;98628.94;217747;1257;139786;-68
2024/03/24 01:29:52;;;;;;;5.80;4.90;;;;;;;2.83;82.63;98619.59;217728;1259;140527;-69
2024/03/24 01:34:54;;;;;;;8.20;5.10;;;;;;;2.73;82.59;98607.93;218243;1256;140493;-69
2024/03/24 01:39:58;;;;;;;9.30;5.50;;;;;;;2.68;83.04;98604.20;217671;1257;139769;-69
2024/03/24 01:45:02;;;;;;;14.40;6.90;;;;;;;2.65;83.25;98601.95;218236;1257;141164;-69
2024/03/24 01:50:06;;;;;;;11.50;5.80;;;;;;;2.61;83.05;98604.55;217752;1259;140302;-68
2024/03/24 01:55:11;;;;;;;6.70;5.20;;;;;;;2.56;83.17;98608.30;217588;1257;140202;-71
2024/03/24 02:00:16;;;;;;;9.10;5.10;;;;;;;2.54;83.37;98610.37;217645;1258;139837;-69
2024/03/24 02:05:28;;;;;;;12.00;5.00;;;;;;;2.52;83.79;98611.30;217558;1257;140665;-70
2024/03/24 02:10:31;;;;;;;10.80;6.30;;;;;;;2.47;83.56;98612.51;218143;1259;139805;-69
2024/03/24 02:15:34;;;;;;;9.20;5.00;;;;;;;2.39;83.50;98619.20;217486;1259;140032;-69
2024/03/24 02:20:36;;;;;;;7.00;5.90;;;;;;;2.36;83.71;98624.30;217857;1257;140508;-69
2024/03/24 02:25:39;;;;;;;10.20;5.90;;;;;;;2.31;83.51;98628.33;217797;1258;139656;-70
2024/03/24 02:30:44;;;;;;;7.80;4.70;;;;;;;2.23;83.61;98619.48;217575;1257;141796;-69
2024/03/24 02:35:48;;;;;;;8.40;5.50;;;;;;;2.17;83.84;98619.07;217632;1256;139682;-69
2024/03/24 02:40:52;;;;;;;9.70;5.30;;;;;;;2.12;83.82;98616.75;217467;1257;209943;-71
2024/03/24 02:45:55;;;;;;;5.60;4.40;;;;;;;2.07;84.20;98618.71;217446;1257;139985;-68
2024/03/24 02:50:59;;;;;;;7.10;3.80;;;;;;;2.06;84.22;98614.64;217564;1259;140279;-69
2024/03/24 02:56:02;;;;;;;12.40;5.00;;;;;;;2.03;84.47;98613.45;218164;1259;140913;-68
2024/03/24 03:01:05;;;;;;;8.80;5.50;;;;;;;1.99;84.34;98611.89;217713;1259;139943;-69
2024/03/24 03:06:14;;;;;;;9.10;5.70;;;;;;;1.96;84.65;98619.30;219122;1258;141403;-70
2024/03/24 03:11:17;;;;;;;17.60;7.60;;;;;;;2.00;85.18;98620.34;217726;1257;140354;-69
2024/03/24 03:16:20;;;;;;;9.00;5.20;;;;;;;2.09;85.58;98627.57;217624;1257;140935;-69
2024/03/24 03:21:24;;;;;;;14.30;6.20;;;;;;;2.18;85.72;98629.45;217518;1259;141249;-70
2024/03/24 03:26:28;;;;;;;9.70;6.20;;;;;;;2.25;85.76;98631.14;218447;1259;139972;-72
2024/03/24 03:31:30;;;;;;;11.60;8.90;;;;;;;2.32;85.96;98631.04;217634;1259;139659;-70
2024/03/24 03:36:34;;;;;;;12.40;6.80;;;;;;;2.36;85.91;98623.34;217498;1259;140015;-69
2024/03/24 03:41:37;;;;;;;8.50;4.90;;;;;;;2.42;86.13;98620.98;217715;1256;210406;-69
2024/03/24 03:46:41;;;;;;;12.10;6.20;;;;;;;2.47;86.25;98618.90;218266;1257;140999;-71
2024/03/24 03:51:46;;;;;;;10.10;7.60;;;;;;;2.52;86.29;98618.31;217611;1257;139495;-69
2024/03/24 03:56:49;;;;;;;13.80;8.30;;;;;;;2.58;86.55;98623.06;217555;1258;140112;-69
2024/03/24 04:01:52;;;;;;;7.90;5.30;;;;;;;2.66;86.45;98626.95;217658;1260;140645;-69
2024/03/24 04:06:57;;;;;;;13.40;8.20;;;;;;;2.69;86.59;98624.55;217612;1259;139452;-69
2024/03/24 04:12:03;;;;;;;12.20;6.70;;;;;;;2.74;86.71;98621.61;218385;1257;140710;-69
2024/03/24 04:17:07;;;;;;;11.50;8.40;;;;;;;2.80;86.62;98620.26;217742;1257;139593;-70
2024/03/24 04:22:10;;;;;;;11.80;7.00;;;;;;;2.85;86.65;98617.60;217904;1257;151635;-70
2024/03/24 04:27:15;;;;;;;14.40;10.20;;;;;;;2.88;86.71;98613.33;218518;1260;139907;-67
2024/03/24 04:32:19;;;;;;;16.00;9.90;;;;;;;2.92;86.87;98620.84;217651;1257;141980;-69
2024/03/24 04:37:23;;;;;;;15.00;11.30;;;;;;;2.95;86.76;98619.00;217591;1260;140078;-70
2024/03/24 04:42:26;;;;;;;14.30;10.10;;;;;;;2.95;86.70;98619.80;217545;1259;165807;-69
2024/03/24 04:47:30;;;;;;;22.50;13.60;;;;;;;2.97;86.62;98621.91;217666;1263;140177;-69
2024/03/24 04:52:33;;;;;;;14.90;10.00;;;;;;;2.98;86.72;98626.12;217763;1257;139839;-68
2024/03/24 04:57:37;;;;;;;19.80;11.70;;;;;;;3.00;86.71;98627.64;217775;1257;139789;-70
2024/03/24 05:02:41;;;;;;;14.50;10.60;;;;;;;3.03;86.81;98626.70;217803;1259;140074;-69
2024/03/24 05:07:48;;;;;;;18.10;13.20;;;;;;;3.06;86.78;98629.46;218006;1260;140621;-68
2024/03/24 05:12:52;;;;;;;13.60;8.70;;;;;;;3.08;86.67;98632.98;217701;1260;140271;-69
2024/03/24 05:17:55;;;;;;;16.30;11.50;;;;;;;3.08;86.64;98631.10;217581;1260;139379;-72
2024/03/24 05:22:57;;;;;;;15.50;11.10;;;;;;;3.08;86.75;98624.41;217680;1258;140048;-68
2024/03/24 05:28:01;;;;;;;18.00;12.30;;;;;;;3.10;86.68;98623.02;218379;1257;139958;-69
2024/03/24 05:33:04;;;;;;;17.80;10.90;;;;;;;3.18;86.81;98617.54;217648;1263;140037;-69
2024/03/24 05:38:06;;;;;;;20.40;13.90;;;;;;;3.26;86.84;98613.68;217425;1261;139388;-69
2024/03/24 05:43:10;;;;;;;18.90;12.20;;;;;;;3.34;86.81;98616.45;217613;1258;140136;-70
2024/03/24 05:48:13;;;;;;;19.20;12.90;;;;;;;3.42;86.57;98611.86;217783;1260;139970;-70
2024/03/24 05:53:16;;;;;;;21.40;13.00;;;;;;;3.52;86.42;98610.49;217592;1258;140637;-68
2024/03/24 05:58:19;;;;;;;22.70;13.10;;;;;;;3.78;86.70;98609.95;217726;1260;140088;-73
2024/03/24 06:03:23;;;;;;;20.70;12.10;;;;;;;4.11;86.81;98612.52;217500;1258;140095;-73
2024/03/24 06:08:28;;;;;;;20.30;12.80;;;;;;;4.30;86.75;98612.78;217401;1260;139895;-71
2024/03/24 06:13:32;;;;;;;19.20;11.60;;;;;;;4.40;86.06;98607.25;217724;1257;140945;-72
2024/03/24 06:18:35;;;;;;;13.70;9.60;;;;;;;4.50;85.96;98604.42;217517;1260;142343;-72
2024/03/24 06:23:38;;;;;;;21.20;13.10;;;;;;;4.45;85.26;98600.91;217750;1260;140263;-72
2024/03/24 06:28:40;;;;;;;21.30;15.00;;;;;;;4.30;85.16;98606.62;217476;1260;140125;-72
2024/03/24 06:33:42;;;;;;;20.50;13.70;;;;;;;4.30;85.35;98606.08;217535;1257;140802;-69
2024/03/24 06:38:45;;;;;;;21.00;13.50;;;;;;;4.46;85.65;98609.59;217622;1259;140321;-68
2024/03/24 06:43:48;;;;;;;14.00;10.60;;;;;;;4.62;85.48;98612.48;217669;1258;140958;-69
2024/03/24 06:48:51;;;;;;;21.60;12.70;;;;;;;4.70;84.94;98614.34;217744;1260;139699;-70
2024/03/24 06:53:54;;;;;;;15.00;11.60;;;;;;;4.70;84.54;98623.15;217896;1257;139605;-68
2024/03/24 06:58:57;;;;;;;21.50;16.10;;;;;;;4.66;84.14;98621.94;217803;1257;140405;-70
2024/03/24 07:04:00;;;;;;;20.00;11.40;;;;;;;4.62;83.99;98628.24;217678;1257;140219;-70
2024/03/24 07:09:03;;;;;;;21.90;13.90;;;;;;;4.56;84.10;98633.95;218802;1257;141242;-70
2024/03/24 07:14:06;;;;;;;25.50;15.00;;;;;;;4.54;83.98;98634.63;217657;1258;139625;-70
2024/03/24 07:19:09;;;;;;;19.50;14.20;;;;;;;4.52;83.97;98639.59;217667;1260;141470;-70
2024/03/24 07:24:12;;;;;;;22.30;14.60;;;;;;;4.48;83.86;98642.52;218157;1258;140171;-69
2024/03/24 07:29:16;;;;;;;17.90;12.40;;;;;;;4.48;83.80;98643.54;217859;1258;223071;-69
2024/03/24 07:34:19;;;;;;;15.20;9.70;;;;;;;4.42;83.53;98645.72;217779;1260;140373;-69
2024/03/24 07:39:25;;;;;;;17.30;12.80;;;;;;;4.39;83.62;98644.45;218203;1257;141223;-70
2024/03/24 07:44:28;;;;;;;17.20;11.60;;;;;;;4.59;84.02;98644.69;217504;1257;141321;-72
2024/03/24 07:49:35;;;;;;;18.90;12.30;;;;;;;4.80;84.09;98638.48;217711;1260;140131;-70
2024/03/24 07:54:37;;;;;;;25.50;12.80;;;;;;;4.89;83.87;98642.42;217913;1260;140423;-71
2024/03/24 07:59:41;;;;;;;13.90;8.90;;;;;;;5.08;83.83;98646.23;217738;1257;139952;-70
2024/03/24 08:04:44;;;;;;;14.90;11.80;;;;;;;5.24;83.79;98647.52;217621;1257;140110;-71
2024/03/24 08:09:48;;;;;;;12.70;9.40;;;;;;;5.35;83.42;98649.80;218022;1258;140366;-72
2024/03/24 08:14:56;;;;;;;13.50;11.70;;;;;;;5.50;82.74;98642.92;217533;1255;139378;-71
2024/03/24 08:19:59;;;;;;;16.50;11.70;;;;;;;5.63;82.63;98632.54;217539;1256;140566;-70
2024/03/24 08:25:02;;;;;;;12.10;8.90;;;;;;;5.77;82.61;98631.38;217639;1260;141002;-71
2024/03/24 08:30:06;;;;;;;12.10;8.70;;;;;;;6.00;82.06;98638.27;218024;1257;139011;-71
2024/03/24 08:35:09;;;;;;;16.20;11.90;;;;;;;6.24;81.48;98639.63;218054;1257;139979;-70
2024/03/24 08:40:13;;;;;;;15.80;10.10;;;;;;;6.36;81.06;98629.65;217557;1257;140102;-68
2024/03/24 08:45:17;;;;;;;12.60;8.00;;;;;;;6.81;81.77;98627.02;218420;1256;140345;-70
2024/03/24 08:50:20;;;;;;;11.10;9.00;;;;;;;7.21;81.02;98628.41;218081;1256;140644;-71
2024/03/24 08:55:25;;;;;;;7.90;7.20;;;;;;;7.48;80.28;98625.13;217669;1256;139589;-72
2024/03/24 09:00:27;;;;;;;10.90;7.90;;;;;;;7.66;79.91;98619.30;218128;1256;140117;-73
2024/03/24 09:05:31;;;;;;;9.30;7.20;;;;;;;7.91;79.39;98617.39;218578;1255;140475;-71
2024/03/24 09:10:35;;;;;;;13.00;8.00;;;;;;;8.13;79.16;98620.07;218240;1259;139981;-70
2024/03/24 09:15:38;;;;;;;10.30;6.00;;;;;;;8.21;78.49;98627.93;217526;1257;139557;-72
2024/03/24 09:20:40;;;;;;;5.90;5.30;;;;;;;8.09;77.80;98627.23;217692;1257;139984;-70
2024/03/24 09:25:43;;;;;;;13.90;11.50;;;;;;;7.99;77.83;98626.02;217874;1255;140150;-70
2024/03/24 09:31:06;;;;;;;11.60;9.30;;;;;;;8.10;77.64;98625.81;217910;1259;140356;-70
2024/03/24 09:36:11;;;;;;;10.50;9.10;;;;;;;8.16;77.05;98625.63;217669;1257;140551;-70
2024/03/24 09:41:15;;;;;;;10.50;8.20;;;;;;;8.38;77.50;98621.45;217813;1259;141609;-71
2024/03/24 09:46:18;;;;;;;7.80;6.70;;;;;;;9.02;77.88;98616.36;218344;1256;139571;-70
2024/03/24 09:51:23;;;;;;;8.80;7.50;;;;;;;9.15;76.19;98617.92;217640;1256;139844;-72
2024/03/24 09:56:27;;;;;;;7.40;5.70;;;;;;;8.92;75.21;98616.42;217644;1259;140508;-71
2024/03/24 10:01:34;;;;;;;5.20;4.70;;;;;;;8.75;74.82;98603.29;217772;1255;139515;-73
2024/03/24 10:06:36;;;;;;;5.30;4.80;;;;;;;8.98;74.78;98593.89;217862;1256;140211;-75
2024/03/24 10:11:39;;;;;;;6.90;4.20;;;;;;;9.29;74.97;98593.41;217909;1257;139636;-70
2024/03/24 10:16:42;;;;;;;6.00;5.00;;;;;;;9.69;75.43;98590.23;217531;1257;140008;-71
2024/03/24 10:21:45;;;;;;;6.90;5.10;;;;;;;10.23;74.73;98587.29;218200;1258;140980;-71
2024/03/24 10:26:47;;;;;;;5.20;4.20;;;;;;;10.70;73.70;98582.23;217793;1259;141156;-72
2024/03/24 10:31:50;;;;;;;4.70;4.30;;;;;;;10.90;72.52;98581.80;217682;1257;140244;-72
2024/03/24 10:36:53;;;;;;;5.00;4.20;;;;;;;10.67;71.41;98583.50;217531;1257;140384;-71
2024/03/24 10:41:58;;;;;;;4.40;3.20;;;;;;;10.41;70.79;98585.50;217743;1258;141917;-71
2024/03/24 10:47:02;;;;;;;4.90;3.90;;;;;;;10.12;70.24;98587.02;217575;1259;281901;-70
2024/03/24 10:52:05;;;;;;;5.50;3.90;;;;;;;9.87;70.18;98581.61;217756;1259;140182;-73
2024/03/24 10:57:10;;;;;;;5.70;3.80;;;;;;;10.19;70.92;98577.73;217938;1260;139727;-70
2024/03/24 11:02:17;;;;;;;4.90;3.90;;;;;;;10.72;70.95;98570.50;218173;1257;141131;-69
2024/03/24 11:07:20;;;;;;;;;;;;;;;10.80;69.58;98568.23;217591;1257;140006;-72
2024/03/24 11:12:25;;;;;;;2.20;2.00;;;;;;;10.56;68.44;98563.39;217946;1259;126419;-73
2024/03/24 11:17:28;;;;;;;3.60;2.40;;;;;;;10.40;68.24;98552.31;217525;1257;139947;-72
2024/03/24 11:22:42;;;;;;;2.20;2.10;;;;;;;10.50;68.32;98544.61;218087;1256;140479;-72
2024/03/24 11:27:45;;;;;;;4.00;1.80;;;;;;;10.32;67.24;98542.42;217591;1257;140371;-72
2024/03/24 11:32:49;;;;;;;5.00;2.30;;;;;;;10.05;67.33;98536.78;217258;1260;142263;-72
2024/03/24 11:37:53;;;;;;;1.00;1.00;;;;;;;10.11;67.30;98532.04;217346;1258;139534;-71
2024/03/24 11:42:57;;;;;;;4.40;1.60;;;;;;;10.46;67.57;98521.58;217402;1257;139483;-71
2024/03/24 11:48:14;;;;;;;1.50;1.40;;;;;;;10.66;66.48;98520.19;217316;1257;139976;-72
2024/03/24 11:53:18;;;;;;;0.80;0.80;;;;;;;10.96;66.10;98510.27;217394;1257;139760;-72
2024/03/24 11:58:22;;;;;;;1.20;1.10;;;;;;;11.13;65.56;98500.99;217437;1257;140971;-74
2024/03/24 12:03:27;;;;;;;2.10;1.70;;;;;;;11.20;65.03;98502.38;217514;1257;139570;-73
2024/03/24 12:08:30;;;;;;;2.30;1.80;;;;;;;11.37;65.10;98496.42;217326;1260;139452;-73
2024/03/24 12:13:36;;;;;;;4.00;1.80;;;;;;;11.42;64.44;98499.02;217382;1257;139159;-74
2024/03/24 12:18:39;;;;;;;2.20;2.00;;;;;;;11.51;64.06;98490.27;217482;1257;140004;-73
2024/03/24 12:23:42;;;;;;;2.30;2.00;;;;;;;11.59;63.89;98487.89;217573;1256;139551;-73
2024/03/24 12:28:54;;;;;;;3.90;1.60;;;;;;;11.57;62.78;98478.17;217440;1260;140160;-73
2024/03/24 12:33:56;;;;;;;2.50;2.10;;;;;;;11.55;62.52;98472.75;217444;1257;139793;-73
2024/03/24 12:39:00;;;;;;;3.80;2.30;;;;;;;11.65;62.51;98469.61;217668;1257;139592;-72
2024/03/24 12:44:03;;;;;;;4.50;2.40;;;;;;;11.74;61.76;98464.09;217610;1257;140153;-73
2024/03/24 12:49:17;;;;;;;2.30;2.10;;;;;;;11.69;61.46;98459.29;217693;1257;140256;-71
2024/03/24 12:54:24;;;;;;;3.90;2.70;;;;;;;11.62;61.50;98454.67;217812;1256;139278;-72
2024/03/24 12:59:29;;;;;;;2.40;2.10;;;;;;;11.63;61.48;98445.05;218183;1256;140122;-73
2024/03/24 13:04:33;;;;;;;2.10;1.90;;;;;;;11.67;61.13;98451.45;217711;1256;139514;-73
2024/03/24 13:09:37;;;;;;;6.90;2.10;;;;;;;11.67;60.75;98457.75;217588;1256;139643;-73
2024/03/24 13:14:40;;;;;;;3.00;1.90;;;;;;;11.38;59.97;98456.77;218489;1257;139445;-73
2024/03/24 13:19:50;;;;;;;3.60;2.30;;;;;;;10.89;59.97;98458.61;217626;1257;210341;-72
2024/03/24 13:24:55;;;;;;;3.40;2.20;;;;;;;10.36;60.03;98461.77;217723;1259;139028;-72
2024/03/24 13:29:58;;;;;;;4.50;2.90;;;;;;;9.95;60.49;98480.66;218442;1256;139906;-72
2024/03/24 13:35:02;;;;;;;5.70;2.70;;;;;;;9.38;61.01;98493.58;217704;1259;138851;-71
2024/03/24 13:40:12;;;;;;;5.30;4.20;;;;;;;8.91;61.73;98492.09;217667;1257;140527;-72
2024/03/24 13:45:39;;;;;;;4.20;3.80;;;;;;;8.95;62.96;98487.27;217520;1257;139113;-74
2024/03/24 13:50:44;;;;;;;6.50;3.10;;;;;;;9.23;63.64;98480.78;217831;1259;138989;-71
2024/03/24 13:55:47;;;;;;;5.10;3.70;;;;;;;9.52;63.97;98475.58;217877;1257;140520;-72
2024/03/24 14:00:50;;;;;;;8.30;3.30;;;;;;;9.56;63.64;98472.67;217452;1257;139928;-71
2024/03/24 14:05:53;;;;;;;8.30;3.40;;;;;;;9.28;63.66;98474.64;217702;1257;139720;-72
2024/03/24 14:10:58;;;;;;;4.80;3.20;;;;;;;9.25;64.62;98470.58;217617;1257;140950;-71
2024/03/24 14:16:41;;;;;;;3.00;2.10;;;;;;;9.18;64.38;98467.45;217908;1259;139657;-71
2024/03/24 14:21:59;;;;;;;3.00;2.70;;;;;;;8.94;64.38;98464.05;217721;1256;161499;-72
2024/03/24 14:27:02;;;;;;;4.70;2.80;;;;;;;8.77;64.89;98456.27;217572;1259;140339;-76
2024/03/24 14:32:05;;;;;;;1.80;1.70;;;;;;;8.63;65.05;98460.71;217674;1259;139956;-71
2024/03/24 14:37:23;;;;;;;1.40;1.30;;;;;;;8.48;64.62;98473.77;217382;1256;140635;-71
2024/03/24 14:42:52;;;;;;;3.30;2.60;;;;;;;8.05;64.11;98484.83;217611;1257;140124;-72
2024/03/24 14:47:58;;;;;;;3.60;2.20;;;;;;;7.82;64.74;98471.14;217692;1257;139660;-72
2024/03/24 14:53:01;;;;;;;1.20;1.10;;;;;;;7.96;65.26;98456.16;220461;1255;140707;-71
2024/03/24 14:58:04;;;;;;;1.60;1.10;;;;;;;8.23;65.42;98449.73;218462;1258;139500;-71
2024/03/24 15:03:07;;;;;;;2.30;1.30;;;;;;;8.45;65.29;98443.94;218128;1257;140891;-71
2024/03/24 15:08:12;;;;;;;2.90;1.40;;;;;;;8.48;64.76;98432.29;218434;1257;140482;-71
2024/03/24 15:13:16;;;;;;;1.60;1.50;;;;;;;8.51;64.77;98429.55;217482;1259;139648;-72
2024/03/24 15:18:19;;;;;;;2.10;1.90;;;;;;;8.48;64.46;98428.84;217618;1257;139476;-71
2024/03/24 15:23:23;;;;;;;2.80;2.50;;;;;;;8.42;64.47;98420.86;217772;1257;140178;-71
2024/03/24 15:28:26;;;;;;;2.20;2.10;;;;;;;8.30;64.65;98416.38;217515;1259;140361;-72
2024/03/24 15:33:30;;;;;;;2.00;1.70;;;;;;;8.21;64.81;98416.77;217527;1257;139968;-72
2024/03/24 15:38:34;;;;;;;3.40;2.00;;;;;;;8.15;64.79;98415.23;217492;1259;139463;-71
2024/03/24 15:43:37;;;;;;;2.60;2.00;;;;;;;8.11;64.70;98416.95;217552;1257;139881;-71
2024/03/24 15:48:40;;;;;;;3.10;1.30;;;;;;;7.97;64.51;98413.30;217552;1257;139258;-71
2024/03/24 15:53:43;;;;;;;4.60;2.10;;;;;;;7.88;64.61;98417.72;217573;1257;140366;-72
2024/03/24 15:59:05;;;;;;;1.80;1.70;;;;;;;7.82;64.86;98416.32;217629;1259;139437;-71
2024/03/24 16:04:07;;;;;;;2.00;1.30;;;;;;;7.78;64.73;98410.92;218236;1257;140935;-70
2024/03/24 16:09:16;;;;;;;1.70;1.50;;;;;;;7.65;64.74;98407.11;217497;1259;139299;-71
2024/03/24 16:14:29;;;;;;;2.00;1.40;;;;;;;7.48;65.06;98409.66;217615;1257;139986;-71
2024/03/24 16:19:31;;;;;;;5.00;1.50;;;;;;;7.25;65.02;98408.43;217754;1259;141158;-71
2024/03/24 16:24:34;;;;;;;1.80;1.30;;;;;;;7.07;66.01;98402.98;217632;1259;140151;-73
2024/03/24 16:29:37;;;;;;;1.80;1.50;;;;;;;6.93;66.69;98399.46;217931;1257;139263;-71
2024/03/24 16:34:40;;;;;;;1.90;1.60;;;;;;;6.82;67.10;98399.73;217595;1256;139385;-74
2024/03/24 16:39:44;;;;;;;1.20;1.10;;;;;;;6.73;67.64;98398.21;217701;1259;139222;-70
2024/03/24 16:44:47;;;;;;;3.20;1.80;;;;;;;6.54;67.76;98397.71;219498;1257;140621;-70
2024/03/24 16:49:53;;;;;;;2.60;1.70;;;;;;;6.31;67.90;98395.66;218219;1257;141429;-71
2024/03/24 16:54:56;;;;;;;1.40;1.30;;;;;;;6.07;68.66;98393.12;217559;1259;140453;-70
2024/03/24 17:00:00;;;;;;;1.20;1.10;;;;;;;5.83;68.85;98400.38;217737;1257;141394;-71
2024/03/24 17:05:03;;;;;;;3.10;1.60;;;;;;;5.60;68.92;98403.86;217814;1257;140299;-71
2024/03/24 17:10:10;;;;;;;3.70;2.50;;;;;;;5.39;69.63;98406.09;219069;1256;140020;-69
2024/03/24 17:15:13;;;;;;;3.30;1.50;;;;;;;5.21;70.07;98410.73;217768;1257;140698;-70
2024/03/24 17:20:17;;;;;;;2.40;1.30;;;;;;;4.96;69.87;98414.96;217676;1257;140278;-69
2024/03/24 17:25:19;;;;;;;24.30;11.70;;;;;;;4.66;70.29;98417.45;217715;1259;139968;-69
2024/03/24 17:30:26;;;;;;;25.00;10.60;;;;;;;4.46;70.60;98421.19;217596;1259;140337;-69
2024/03/24 17:35:29;;;;;;;19.70;8.20;;;;;;;4.43;71.58;98421.42;217605;1257;140952;-70
2024/03/24 17:40:32;;;;;;;15.80;7.50;;;;;;;4.43;71.75;98420.53;218536;1257;139904;-70
2024/03/24 17:45:36;;;;;;;11.60;7.30;;;;;;;4.45;72.29;98418.57;217488;1257;140491;-69
2024/03/24 17:50:41;;;;;;;17.40;8.80;;;;;;;4.46;72.27;98417.22;217571;1255;139706;-70
2024/03/24 17:55:44;;;;;;;17.20;8.40;;;;;;;4.47;72.66;98419.30;217566;1258;139597;-69
2024/03/24 18:00:46;;;;;;;15.60;7.70;;;;;;;4.45;72.83;98411.45;217589;1257;139543;-70
2024/03/24 18:05:49;;;;;;;12.60;9.60;;;;;;;4.51;73.09;98409.39;217648;1259;142958;-69
2024/03/24 18:10:51;;;;;;;15.00;6.80;;;;;;;4.55;73.20;98411.07;218169;1257;141271;-70
2024/03/24 18:15:54;;;;;;;15.10;8.40;;;;;;;4.55;73.25;98410.13;217568;1257;139576;-69
2024/03/24 18:21:00;;;;;;;19.90;10.30;;;;;;;4.55;73.25;98408.70;217713;1257;140060;-70
2024/03/24 18:26:03;;;;;;;14.50;10.00;;;;;;;4.58;73.87;98409.18;217769;1259;139786;-68
2024/03/24 18:31:06;;;;;;;13.90;9.20;;;;;;;4.59;73.74;98406.46;218417;1257;139972;-69
2024/03/24 18:36:12;;;;;;;18.00;10.30;;;;;;;4.57;73.89;98409.53;218446;1259;140865;-70
2024/03/24 18:41:17;;;;;;;19.90;11.10;;;;;;;4.54;74.10;98407.55;217717;1257;139894;-70
2024/03/24 18:46:21;;;;;;;17.00;8.40;;;;;;;4.55;74.34;98411.50;219498;1255;141145;-70
2024/03/24 18:51:24;;;;;;;13.90;8.80;;;;;;;4.57;74.39;98411.17;217843;1256;139559;-68
2024/03/24 18:56:28;;;;;;;14.30;6.30;;;;;;;4.57;74.61;98412.45;217749;1259;141593;-68
2024/03/24 19:01:31;;;;;;;10.40;7.30;;;;;;;4.58;74.41;98412.56;217605;1259;140463;-70
2024/03/24 19:06:34;;;;;;;15.20;8.30;;;;;;;4.53;74.45;98414.02;217787;1256;140112;-70
2024/03/24 19:11:38;;;;;;;14.60;8.80;;;;;;;4.44;74.50;98409.32;217575;1257;140323;-69
2024/03/24 19:16:41;;;;;;;19.50;9.00;;;;;;;4.38;74.46;98407.98;217934;1257;139465;-69
2024/03/24 19:21:46;;;;;;;15.60;9.20;;;;;;;4.35;74.67;98403.39;217705;1259;139647;-70
2024/03/24 19:26:49;;;;;;;12.80;9.70;;;;;;;4.32;74.91;98405.27;217628;1257;140544;-69
2024/03/24 19:31:53;;;;;;;14.40;8.80;;;;;;;4.30;74.95;98399.58;217655;1256;140134;-68
2024/03/24 19:36:56;;;;;;;16.50;9.70;;;;;;;4.26;75.15;98396.13;217587;1259;140786;-70
2024/03/24 19:42:03;;;;;;;10.50;8.60;;;;;;;4.20;74.90;98394.28;217416;1259;139949;-69
2024/03/24 19:47:06;;;;;;;15.30;9.50;;;;;;;4.09;75.10;98393.05;217746;1259;139897;-69
2024/03/24 19:52:10;;;;;;;19.20;10.70;;;;;;;4.02;75.06;98394.49;217636;1257;140216;-69
2024/03/24 19:57:13;;;;;;;13.00;9.90;;;;;;;3.94;75.22;98396.13;218655;1259;141893;-70
2024/03/24 20:02:17;;;;;;;13.90;10.00;;;;;;;3.86;75.33;98393.20;217505;1259;140485;-69
2024/03/24 20:07:23;;;;;;;14.90;10.90;;;;;;;3.77;75.65;98390.59;217447;1257;141911;-69
2024/03/24 20:12:26;;;;;;;16.10;9.50;;;;;;;3.73;75.63;98388.95;217607;1259;140105;-70
2024/03/24 20:17:31;;;;;;;19.70;9.90;;;;;;;3.75;76.04;98389.64;217735;1259;140222;-70
2024/03/24 20:22:33;;;;;;;25.40;13.20;;;;;;;3.79;76.18;98381.41;217595;1257;139971;-71
2024/03/24 20:27:39;;;;;;;20.90;12.80;;;;;;;3.82;76.25;98375.52;217997;1257;141024;-71
2024/03/24 20:32:43;;;;;;;18.00;11.40;;;;;;;3.85;76.41;98373.41;217795;1259;140739;-70
2024/03/24 20:37:46;;;;;;;17.00;9.80;;;;;;;3.88;76.63;98372.08;217892;1257;139522;-70
2024/03/24 20:42:49;;;;;;;25.60;10.50;;;;;;;3.91;76.61;98364.82;217689;1257;139911;-71
2024/03/24 20:47:53;;;;;;;18.90;9.60;;;;;;;3.94;76.79;98371.50;218593;1259;142130;-69
2024/03/24 20:52:57;;;;;;;16.00;10.60;;;;;;;3.97;76.56;98374.77;217863;1257;139686;-70
2024/03/24 20:58:00;;;;;;;19.70;10.70;;;;;;;4.01;77.16;98387.16;217917;1257;139763;-69
2024/03/24 21:03:03;;;;;;;14.30;9.00;;;;;;;4.05;77.22;98395.74;217526;1257;141191;-70
2024/03/24 21:08:07;;;;;;;14.70;9.10;;;;;;;4.04;77.12;98383.86;217981;1257;139534;-68
2024/03/24 21:13:09;;;;;;;17.00;10.00;;;;;;;3.96;77.55;98374.27;217624;1257;142798;-68
2024/03/24 21:18:11;;;;;;;17.30;10.10;;;;;;;3.88;77.88;98372.97;217635;1256;140399;-68
2024/03/24 21:23:13;;;;;;;14.50;9.20;;;;;;;3.85;78.20;98369.04;217755;1257;141010;-69
2024/03/24 21:28:16;;;;;;;15.90;9.30;;;;;;;3.85;78.46;98366.51;217491;1256;141112;-68
2024/03/24 21:33:19;;;;;;;20.50;12.50;;;;;;;3.82;78.31;98365.90;217698;1257;139735;-68
2024/03/24 21:43:43;;;;;;;23.80;12.30;;;;;;;3.83;78.56;98367.65;218511;1259;140408;-68
2024/03/24 21:48:46;;;;;;;17.20;12.20;;;;;;;3.83;78.62;98367.71;217733;1257;139859;-69
2024/03/24 21:53:49;;;;;;;21.00;12.70;;;;;;;3.81;78.74;98363.45;217498;1258;141133;-69
2024/03/24 21:58:54;;;;;;;15.50;10.70;;;;;;;3.79;79.03;98357.91;218865;1257;142331;-71
2024/03/24 22:03:57;;;;;;;17.00;10.60;;;;;;;3.82;79.11;98360.27;217823;1256;140050;-67
2024/03/24 22:09:00;;;;;;;16.50;10.00;;;;;;;3.87;79.19;98350.31;218791;1257;140826;-71
2024/03/24 22:14:03;;;;;;;18.20;11.00;;;;;;;3.89;79.24;98347.11;217587;1259;140764;-71
2024/03/24 22:19:09;;;;;;;16.60;11.10;;;;;;;3.91;79.27;98343.08;219491;1257;140430;-71
2024/03/24 22:24:12;;;;;;;18.30;10.10;;;;;;;3.90;79.23;98339.52;217618;1259;140092;-71
2024/03/24 22:29:16;;;;;;;26.10;13.40;;;;;;;3.88;79.39;98340.69;217885;1259;139666;-71
2024/03/24 22:34:19;;;;;;;16.60;10.40;;;;;;;3.88;79.64;98337.28;218330;1260;140735;-71
2024/03/24 22:39:22;;;;;;;17.70;12.00;;;;;;;3.90;79.60;98336.75;217941;1258;140830;-71
2024/03/24 22:44:24;;;;;;;21.40;10.90;;;;;;;3.92;79.62;98329.93;218067;1257;378241;-69
2024/03/24 22:49:27;;;;;;;18.40;10.70;;;;;;;3.93;79.70;98320.21;218226;1259;140143;-68
2024/03/24 22:54:30;;;;;;;17.10;10.60;;;;;;;3.92;79.63;98320.46;217493;1260;140223;-68
2024/03/24 22:59:33;;;;;;;20.50;12.50;;;;;;;3.91;79.91;98320.94;217760;1259;140335;-69
2024/03/24 23:04:36;;;;;;;21.20;13.10;;;;;;;3.89;79.70;98328.54;217931;1258;141433;-68
2024/03/24 23:09:38;;;;;;;14.70;9.80;;;;;;;3.86;79.89;98324.66;217686;1257;141128;-67
2024/03/24 23:14:41;;;;;;;19.50;10.40;;;;;;;3.79;79.93;98328.77;217521;1259;141483;-68
2024/03/24 23:19:47;;;;;;;11.30;7.80;;;;;;;3.79;80.11;98332.17;217435;1260;140009;-67
2024/03/24 23:24:49;;;;;;;21.30;11.80;;;;;;;3.81;80.29;98332.91;218370;1257;139642;-68